sensor_id;sensor_type;location;lat;lon;timestamp;P1;durP1;ratioP1;P2;durP2;ratioP2
9288;SDS011;4683;50.864;12.086;2023-12-28T00:02:27;2.50;;;2.20;;
9288;SDS011;4683;50.864;12.086;2023-12-28T00:05:18;3.33;;;2.10;;
9288;SDS011;4683;50.864;12.086;2023-12-28T00:08:01;2.03;;;1.70;;
9288;SDS011;4683;50.864;12.086;2023-12-28T00:10:32;2.37;;;2.17;;
9288;SDS011;4683;50.864;12.086;2023-12-28T00:13:11;2.63;;;2.20;;
9288;SDS011;4683;50.864;12.086;2023-12-28T00:15:40;2.60;;;1.87;;
9288;SDS011;4683;50.864;12.086;2023-12-28T00:18:29;2.17;;;2.07;;
9288;SDS011;4683;50.864;12.086;2023-12-28T00:20:59;2.30;;;2.00;;
9288;SDS011;4683;50.864;12.086;2023-12-28T00:23:44;2.30;;;2.10;;
9288;SDS011;4683;50.864;12.086;2023-12-28T00:26:31;3.03;;;2.40;;
9288;SDS011;4683;50.864;12.086;2023-12-28T00:29:20;2.13;;;2.03;;
9288;SDS011;4683;50.864;12.086;2023-12-28T00:31:50;3.37;;;2.10;;
9288;SDS011;4683;50.864;12.086;2023-12-28T00:34:18;2.77;;;2.27;;
9288;SDS011;4683;50.864;12.086;2023-12-28T00:37:12;1.80;;;1.70;;
9288;SDS011;4683;50.864;12.086;2023-12-28T00:39:43;2.80;;;2.30;;
9288;SDS011;4683;50.864;12.086;2023-12-28T00:42:13;1.93;;;1.80;;
9288;SDS011;4683;50.864;12.086;2023-12-28T00:44:58;3.70;;;2.10;;
9288;SDS011;4683;50.864;12.086;2023-12-28T00:47:39;3.33;;;2.30;;
9288;SDS011;4683;50.864;12.086;2023-12-28T00:50:12;2.30;;;2.10;;
9288;SDS011;4683;50.864;12.086;2023-12-28T00:53:00;2.17;;;1.90;;
9288;SDS011;4683;50.864;12.086;2023-12-28T00:55:28;2.40;;;2.20;;
9288;SDS011;4683;50.864;12.086;2023-12-28T00:58:03;2.23;;;2.00;;
9288;SDS011;4683;50.864;12.086;2023-12-28T01:00:48;2.70;;;2.10;;
9288;SDS011;4683;50.864;12.086;2023-12-28T01:03:32;2.07;;;1.73;;
9288;SDS011;4683;50.864;12.086;2023-12-28T01:06:15;2.53;;;2.10;;
9288;SDS011;4683;50.864;12.086;2023-12-28T01:08:48;2.43;;;2.00;;
9288;SDS011;4683;50.864;12.086;2023-12-28T01:11:20;2.20;;;2.00;;
9288;SDS011;4683;50.864;12.086;2023-12-28T01:14:06;1.77;;;1.67;;
9288;SDS011;4683;50.864;12.086;2023-12-28T01:16:50;2.27;;;1.80;;
9288;SDS011;4683;50.864;12.086;2023-12-28T01:19:26;2.07;;;1.87;;
9288;SDS011;4683;50.864;12.086;2023-12-28T01:22:10;1.80;;;1.70;;
9288;SDS011;4683;50.864;12.086;2023-12-28T01:25:03;2.17;;;1.93;;
9288;SDS011;4683;50.864;12.086;2023-12-28T01:27:33;2.20;;;1.70;;
9288;SDS011;4683;50.864;12.086;2023-12-28T01:34:08;2.30;;;1.90;;
9288;SDS011;4683;50.864;12.086;2023-12-28T01:36:51;2.10;;;1.90;;
9288;SDS011;4683;50.864;12.086;2023-12-28T01:39:26;2.13;;;1.70;;
9288;SDS011;4683;50.864;12.086;2023-12-28T01:41:54;1.50;;;1.40;;
9288;SDS011;4683;50.864;12.086;2023-12-28T01:44:41;1.93;;;1.63;;
9288;SDS011;4683;50.864;12.086;2023-12-28T01:47:29;1.90;;;1.80;;
9288;SDS011;4683;50.864;12.086;2023-12-28T01:50:11;4.00;;;2.83;;
9288;SDS011;4683;50.864;12.086;2023-12-28T01:52:42;2.60;;;2.40;;
9288;SDS011;4683;50.864;12.086;2023-12-28T01:55:10;1.83;;;1.73;;
9288;SDS011;4683;50.864;12.086;2023-12-28T01:58:01;3.40;;;3.10;;
9288;SDS011;4683;50.864;12.086;2023-12-28T02:00:51;4.20;;;3.37;;
9288;SDS011;4683;50.864;12.086;2023-12-28T02:03:36;2.37;;;2.17;;
9288;SDS011;4683;50.864;12.086;2023-12-28T02:06:04;2.27;;;2.07;;
9288;SDS011;4683;50.864;12.086;2023-12-28T02:08:36;4.00;;;3.57;;
9288;SDS011;4683;50.864;12.086;2023-12-28T02:11:17;2.20;;;2.00;;
9288;SDS011;4683;50.864;12.086;2023-12-28T02:14:02;2.40;;;2.20;;
9288;SDS011;4683;50.864;12.086;2023-12-28T02:16:36;3.03;;;2.67;;
9288;SDS011;4683;50.864;12.086;2023-12-28T02:19:17;2.63;;;2.13;;
9288;SDS011;4683;50.864;12.086;2023-12-28T02:22:12;1.50;;;1.40;;
9288;SDS011;4683;50.864;12.086;2023-12-28T02:25:02;2.07;;;1.83;;
9288;SDS011;4683;50.864;12.086;2023-12-28T02:27:48;1.90;;;1.80;;
9288;SDS011;4683;50.864;12.086;2023-12-28T02:30:34;2.37;;;2.17;;
9288;SDS011;4683;50.864;12.086;2023-12-28T02:33:05;2.47;;;2.27;;
9288;SDS011;4683;50.864;12.086;2023-12-28T02:35:40;1.73;;;1.63;;
9288;SDS011;4683;50.864;12.086;2023-12-28T02:38:13;2.77;;;1.70;;
9288;SDS011;4683;50.864;12.086;2023-12-28T02:40:51;1.93;;;1.80;;
9288;SDS011;4683;50.864;12.086;2023-12-28T02:43:41;2.10;;;1.90;;
9288;SDS011;4683;50.864;12.086;2023-12-28T02:46:25;2.03;;;1.87;;
9288;SDS011;4683;50.864;12.086;2023-12-28T02:48:55;1.87;;;1.60;;
9288;SDS011;4683;50.864;12.086;2023-12-28T02:51:39;1.77;;;1.67;;
9288;SDS011;4683;50.864;12.086;2023-12-28T02:54:24;1.93;;;1.70;;
9288;SDS011;4683;50.864;12.086;2023-12-28T02:57:11;2.97;;;1.83;;
9288;SDS011;4683;50.864;12.086;2023-12-28T02:59:44;2.77;;;1.90;;
9288;SDS011;4683;50.864;12.086;2023-12-28T03:02:21;3.17;;;2.30;;
9288;SDS011;4683;50.864;12.086;2023-12-28T03:05:12;2.27;;;1.70;;
9288;SDS011;4683;50.864;12.086;2023-12-28T03:07:57;1.90;;;1.80;;
9288;SDS011;4683;50.864;12.086;2023-12-28T03:10:39;2.37;;;2.17;;
9288;SDS011;4683;50.864;12.086;2023-12-28T03:13:29;2.10;;;1.90;;
9288;SDS011;4683;50.864;12.086;2023-12-28T03:16:13;3.30;;;2.07;;
9288;SDS011;4683;50.864;12.086;2023-12-28T03:18:40;3.47;;;2.00;;
9288;SDS011;4683;50.864;12.086;2023-12-28T03:21:15;2.17;;;2.07;;
9288;SDS011;4683;50.864;12.086;2023-12-28T03:24:01;2.30;;;2.10;;
9288;SDS011;4683;50.864;12.086;2023-12-28T03:26:43;2.03;;;1.83;;
9288;SDS011;4683;50.864;12.086;2023-12-28T03:29:13;1.93;;;1.73;;
9288;SDS011;4683;50.864;12.086;2023-12-28T03:31:53;2.20;;;2.00;;
9288;SDS011;4683;50.864;12.086;2023-12-28T03:34:35;1.80;;;1.70;;
9288;SDS011;4683;50.864;12.086;2023-12-28T03:37:22;2.77;;;2.23;;
9288;SDS011;4683;50.864;12.086;2023-12-28T03:39:58;3.03;;;2.17;;
9288;SDS011;4683;50.864;12.086;2023-12-28T03:42:28;2.30;;;1.73;;
9288;SDS011;4683;50.864;12.086;2023-12-28T03:45:16;2.10;;;1.80;;
9288;SDS011;4683;50.864;12.086;2023-12-28T03:47:47;3.53;;;2.03;;
9288;SDS011;4683;50.864;12.086;2023-12-28T03:50:30;2.47;;;1.87;;
9288;SDS011;4683;50.864;12.086;2023-12-28T03:53:18;3.87;;;2.30;;
9288;SDS011;4683;50.864;12.086;2023-12-28T03:55:50;3.10;;;2.00;;
9288;SDS011;4683;50.864;12.086;2023-12-28T03:58:31;2.73;;;2.40;;
9288;SDS011;4683;50.864;12.086;2023-12-28T04:01:24;2.43;;;2.23;;
9288;SDS011;4683;50.864;12.086;2023-12-28T04:03:52;3.20;;;2.00;;
9288;SDS011;4683;50.864;12.086;2023-12-28T04:06:26;2.00;;;1.90;;
9288;SDS011;4683;50.864;12.086;2023-12-28T04:09:08;3.50;;;2.30;;
9288;SDS011;4683;50.864;12.086;2023-12-28T04:12:06;2.40;;;1.93;;
9288;SDS011;4683;50.864;12.086;2023-12-28T04:14:37;3.23;;;2.93;;
9288;SDS011;4683;50.864;12.086;2023-12-28T04:17:27;3.20;;;2.87;;
9288;SDS011;4683;50.864;12.086;2023-12-28T04:19:55;2.67;;;2.47;;
9288;SDS011;4683;50.864;12.086;2023-12-28T04:22:33;3.63;;;2.70;;
9288;SDS011;4683;50.864;12.086;2023-12-28T04:25:01;2.57;;;2.37;;
9288;SDS011;4683;50.864;12.086;2023-12-28T04:27:30;2.83;;;2.60;;
9288;SDS011;4683;50.864;12.086;2023-12-28T04:30:01;3.07;;;2.73;;
9288;SDS011;4683;50.864;12.086;2023-12-28T04:32:33;4.27;;;2.50;;
9288;SDS011;4683;50.864;12.086;2023-12-28T04:35:04;2.67;;;1.97;;
9288;SDS011;4683;50.864;12.086;2023-12-28T04:37:52;3.37;;;2.53;;
9288;SDS011;4683;50.864;12.086;2023-12-28T04:40:35;2.47;;;2.27;;
9288;SDS011;4683;50.864;12.086;2023-12-28T04:43:20;2.77;;;2.23;;
9288;SDS011;4683;50.864;12.086;2023-12-28T04:46:04;2.60;;;2.17;;
9288;SDS011;4683;50.864;12.086;2023-12-28T04:48:57;2.50;;;2.30;;
9288;SDS011;4683;50.864;12.086;2023-12-28T04:51:27;2.43;;;2.23;;
9288;SDS011;4683;50.864;12.086;2023-12-28T04:54:12;2.53;;;2.20;;
9288;SDS011;4683;50.864;12.086;2023-12-28T04:56:56;2.70;;;2.47;;
9288;SDS011;4683;50.864;12.086;2023-12-28T04:59:37;4.10;;;2.40;;
9288;SDS011;4683;50.864;12.086;2023-12-28T05:02:19;2.80;;;2.23;;
9288;SDS011;4683;50.864;12.086;2023-12-28T05:04:53;2.57;;;2.37;;
9288;SDS011;4683;50.864;12.086;2023-12-28T05:07:21;3.33;;;2.50;;
9288;SDS011;4683;50.864;12.086;2023-12-28T05:10:07;4.70;;;2.47;;
9288;SDS011;4683;50.864;12.086;2023-12-28T05:12:47;1.93;;;1.83;;
9288;SDS011;4683;50.864;12.086;2023-12-28T05:15:29;3.00;;;2.70;;
9288;SDS011;4683;50.864;12.086;2023-12-28T05:17:57;2.63;;;2.30;;
9288;SDS011;4683;50.864;12.086;2023-12-28T05:20:43;2.60;;;2.40;;
9288;SDS011;4683;50.864;12.086;2023-12-28T05:23:18;3.47;;;2.40;;
9288;SDS011;4683;50.864;12.086;2023-12-28T05:25:59;2.60;;;2.40;;
9288;SDS011;4683;50.864;12.086;2023-12-28T05:28:29;2.37;;;2.17;;
9288;SDS011;4683;50.864;12.086;2023-12-28T05:31:16;2.40;;;2.07;;
9288;SDS011;4683;50.864;12.086;2023-12-28T05:33:47;3.07;;;2.50;;
9288;SDS011;4683;50.864;12.086;2023-12-28T05:36:31;2.30;;;1.97;;
9288;SDS011;4683;50.864;12.086;2023-12-28T05:39:07;2.87;;;2.53;;
9288;SDS011;4683;50.864;12.086;2023-12-28T05:41:38;2.70;;;2.50;;
9288;SDS011;4683;50.864;12.086;2023-12-28T05:44:24;5.47;;;2.47;;
9288;SDS011;4683;50.864;12.086;2023-12-28T05:46:55;3.10;;;2.33;;
9288;SDS011;4683;50.864;12.086;2023-12-28T05:49:43;3.60;;;2.80;;
9288;SDS011;4683;50.864;12.086;2023-12-28T05:52:14;2.40;;;2.20;;
9288;SDS011;4683;50.864;12.086;2023-12-28T05:54:54;2.37;;;1.93;;
9288;SDS011;4683;50.864;12.086;2023-12-28T05:57:29;2.93;;;2.40;;
9288;SDS011;4683;50.864;12.086;2023-12-28T06:00:08;2.53;;;2.33;;
9288;SDS011;4683;50.864;12.086;2023-12-28T06:02:49;2.43;;;2.23;;
9288;SDS011;4683;50.864;12.086;2023-12-28T06:05:31;3.73;;;2.67;;
9288;SDS011;4683;50.864;12.086;2023-12-28T06:08:19;3.57;;;2.30;;
9288;SDS011;4683;50.864;12.086;2023-12-28T06:11:02;2.93;;;2.37;;
9288;SDS011;4683;50.864;12.086;2023-12-28T06:13:48;4.83;;;2.50;;
9288;SDS011;4683;50.864;12.086;2023-12-28T06:16:29;2.70;;;2.50;;
9288;SDS011;4683;50.864;12.086;2023-12-28T06:19:00;3.20;;;2.40;;
9288;SDS011;4683;50.864;12.086;2023-12-28T06:21:29;2.67;;;2.47;;
9288;SDS011;4683;50.864;12.086;2023-12-28T06:23:58;3.00;;;2.70;;
9288;SDS011;4683;50.864;12.086;2023-12-28T06:26:44;3.27;;;2.80;;
9288;SDS011;4683;50.864;12.086;2023-12-28T06:29:37;2.40;;;2.20;;
9288;SDS011;4683;50.864;12.086;2023-12-28T06:32:22;2.77;;;2.57;;
9288;SDS011;4683;50.864;12.086;2023-12-28T06:34:52;2.97;;;2.30;;
9288;SDS011;4683;50.864;12.086;2023-12-28T06:37:27;2.53;;;2.33;;
9288;SDS011;4683;50.864;12.086;2023-12-28T06:39:57;3.07;;;2.37;;
9288;SDS011;4683;50.864;12.086;2023-12-28T06:42:25;2.83;;;2.53;;
9288;SDS011;4683;50.864;12.086;2023-12-28T06:44:57;3.43;;;2.40;;
9288;SDS011;4683;50.864;12.086;2023-12-28T06:47:25;2.23;;;2.03;;
9288;SDS011;4683;50.864;12.086;2023-12-28T06:50:07;3.13;;;2.47;;
9288;SDS011;4683;50.864;12.086;2023-12-28T06:52:52;2.53;;;2.33;;
9288;SDS011;4683;50.864;12.086;2023-12-28T06:55:23;3.70;;;3.17;;
9288;SDS011;4683;50.864;12.086;2023-12-28T06:58:07;3.77;;;2.93;;
9288;SDS011;4683;50.864;12.086;2023-12-28T07:00:43;3.80;;;2.60;;
9288;SDS011;4683;50.864;12.086;2023-12-28T07:03:26;3.13;;;2.87;;
9288;SDS011;4683;50.864;12.086;2023-12-28T07:06:10;4.83;;;2.87;;
9288;SDS011;4683;50.864;12.086;2023-12-28T07:08:44;3.27;;;2.77;;
9288;SDS011;4683;50.864;12.086;2023-12-28T07:11:27;2.77;;;2.57;;
9288;SDS011;4683;50.864;12.086;2023-12-28T07:13:58;2.97;;;2.70;;
9288;SDS011;4683;50.864;12.086;2023-12-28T07:16:45;4.20;;;2.87;;
9288;SDS011;4683;50.864;12.086;2023-12-28T07:19:20;2.50;;;2.30;;
9288;SDS011;4683;50.864;12.086;2023-12-28T07:22:03;5.07;;;2.90;;
9288;SDS011;4683;50.864;12.086;2023-12-28T07:24:36;3.23;;;2.60;;
9288;SDS011;4683;50.864;12.086;2023-12-28T07:27:26;2.87;;;2.57;;
9288;SDS011;4683;50.864;12.086;2023-12-28T07:30:14;2.57;;;2.27;;
9288;SDS011;4683;50.864;12.086;2023-12-28T07:32:44;3.57;;;2.90;;
9288;SDS011;4683;50.864;12.086;2023-12-28T07:35:30;2.40;;;2.27;;
9288;SDS011;4683;50.864;12.086;2023-12-28T07:38:14;2.97;;;2.67;;
9288;SDS011;4683;50.864;12.086;2023-12-28T07:40:46;3.47;;;2.90;;
9288;SDS011;4683;50.864;12.086;2023-12-28T07:43:33;2.97;;;2.70;;
9288;SDS011;4683;50.864;12.086;2023-12-28T07:46:17;3.67;;;2.60;;
9288;SDS011;4683;50.864;12.086;2023-12-28T07:49:09;3.43;;;2.90;;
9288;SDS011;4683;50.864;12.086;2023-12-28T07:51:53;4.37;;;3.00;;
9288;SDS011;4683;50.864;12.086;2023-12-28T07:54:35;3.63;;;2.70;;
9288;SDS011;4683;50.864;12.086;2023-12-28T07:57:04;3.00;;;2.70;;
9288;SDS011;4683;50.864;12.086;2023-12-28T07:59:36;3.40;;;3.10;;
9288;SDS011;4683;50.864;12.086;2023-12-28T08:02:05;2.80;;;2.60;;
9288;SDS011;4683;50.864;12.086;2023-12-28T08:04:43;3.53;;;2.73;;
9288;SDS011;4683;50.864;12.086;2023-12-28T08:07:30;3.20;;;2.80;;
9288;SDS011;4683;50.864;12.086;2023-12-28T08:09:58;3.50;;;2.87;;
9288;SDS011;4683;50.864;12.086;2023-12-28T08:12:43;2.90;;;2.60;;
9288;SDS011;4683;50.864;12.086;2023-12-28T08:15:28;2.90;;;2.70;;
9288;SDS011;4683;50.864;12.086;2023-12-28T08:18:07;3.20;;;2.80;;
9288;SDS011;4683;50.864;12.086;2023-12-28T08:20:45;4.00;;;2.93;;
9288;SDS011;4683;50.864;12.086;2023-12-28T08:23:15;3.03;;;2.33;;
9288;SDS011;4683;50.864;12.086;2023-12-28T08:25:44;2.87;;;2.57;;
9288;SDS011;4683;50.864;12.086;2023-12-28T08:28:17;2.70;;;2.50;;
9288;SDS011;4683;50.864;12.086;2023-12-28T08:30:47;4.27;;;2.80;;
9288;SDS011;4683;50.864;12.086;2023-12-28T08:33:15;2.60;;;2.40;;
9288;SDS011;4683;50.864;12.086;2023-12-28T08:35:43;3.50;;;3.10;;
9288;SDS011;4683;50.864;12.086;2023-12-28T08:38:12;2.90;;;2.60;;
9288;SDS011;4683;50.864;12.086;2023-12-28T08:40:41;3.70;;;2.93;;
9288;SDS011;4683;50.864;12.086;2023-12-28T08:43:12;5.00;;;3.13;;
9288;SDS011;4683;50.864;12.086;2023-12-28T08:45:41;3.63;;;3.27;;
9288;SDS011;4683;50.864;12.086;2023-12-28T08:48:11;3.20;;;2.90;;
9288;SDS011;4683;50.864;12.086;2023-12-28T08:50:55;3.07;;;2.87;;
9288;SDS011;4683;50.864;12.086;2023-12-28T08:53:31;3.13;;;2.83;;
9288;SDS011;4683;50.864;12.086;2023-12-28T08:56:11;2.73;;;2.43;;
9288;SDS011;4683;50.864;12.086;2023-12-28T08:59:03;2.57;;;2.37;;
9288;SDS011;4683;50.864;12.086;2023-12-28T09:01:39;2.60;;;2.40;;
9288;SDS011;4683;50.864;12.086;2023-12-28T09:04:23;2.60;;;2.40;;
9288;SDS011;4683;50.864;12.086;2023-12-28T09:06:57;2.70;;;2.50;;
9288;SDS011;4683;50.864;12.086;2023-12-28T09:09:37;3.27;;;2.80;;
9288;SDS011;4683;50.864;12.086;2023-12-28T09:12:20;3.13;;;2.53;;
9288;SDS011;4683;50.864;12.086;2023-12-28T09:14:59;3.00;;;2.70;;
9288;SDS011;4683;50.864;12.086;2023-12-28T09:17:28;3.07;;;2.77;;
9288;SDS011;4683;50.864;12.086;2023-12-28T09:19:58;2.43;;;2.23;;
9288;SDS011;4683;50.864;12.086;2023-12-28T09:22:27;3.10;;;2.80;;
9288;SDS011;4683;50.864;12.086;2023-12-28T09:24:59;3.47;;;2.87;;
9288;SDS011;4683;50.864;12.086;2023-12-28T09:27:41;5.77;;;2.80;;
9288;SDS011;4683;50.864;12.086;2023-12-28T09:30:25;3.57;;;2.60;;
9288;SDS011;4683;50.864;12.086;2023-12-28T09:33:16;3.07;;;2.57;;
9288;SDS011;4683;50.864;12.086;2023-12-28T09:36:06;3.83;;;2.57;;
9288;SDS011;4683;50.864;12.086;2023-12-28T09:38:38;3.30;;;3.00;;
9288;SDS011;4683;50.864;12.086;2023-12-28T09:41:11;4.20;;;3.67;;
9288;SDS011;4683;50.864;12.086;2023-12-28T09:44:00;4.00;;;3.60;;
9288;SDS011;4683;50.864;12.086;2023-12-28T09:46:41;3.03;;;2.77;;
9288;SDS011;4683;50.864;12.086;2023-12-28T09:49:13;3.43;;;2.90;;
9288;SDS011;4683;50.864;12.086;2023-12-28T09:51:58;4.03;;;2.37;;
9288;SDS011;4683;50.864;12.086;2023-12-28T09:54:29;2.90;;;2.53;;
9288;SDS011;4683;50.864;12.086;2023-12-28T09:59:30;2.80;;;2.60;;
9288;SDS011;4683;50.864;12.086;2023-12-28T10:02:00;2.73;;;2.53;;
9288;SDS011;4683;50.864;12.086;2023-12-28T10:04:45;3.07;;;2.60;;
9288;SDS011;4683;50.864;12.086;2023-12-28T10:07:14;3.47;;;2.47;;
9288;SDS011;4683;50.864;12.086;2023-12-28T10:10:01;2.73;;;2.40;;
9288;SDS011;4683;50.864;12.086;2023-12-28T10:12:39;3.10;;;2.70;;
9288;SDS011;4683;50.864;12.086;2023-12-28T10:15:16;2.60;;;2.40;;
9288;SDS011;4683;50.864;12.086;2023-12-28T10:17:45;2.83;;;2.53;;
9288;SDS011;4683;50.864;12.086;2023-12-28T10:20:37;2.60;;;2.40;;
9288;SDS011;4683;50.864;12.086;2023-12-28T10:23:33;3.10;;;2.70;;
9288;SDS011;4683;50.864;12.086;2023-12-28T10:26:04;2.97;;;2.67;;
9288;SDS011;4683;50.864;12.086;2023-12-28T10:28:43;2.57;;;2.37;;
9288;SDS011;4683;50.864;12.086;2023-12-28T10:31:29;2.30;;;2.10;;
9288;SDS011;4683;50.864;12.086;2023-12-28T10:33:57;2.90;;;2.70;;
9288;SDS011;4683;50.864;12.086;2023-12-28T10:36:28;2.77;;;2.57;;
9288;SDS011;4683;50.864;12.086;2023-12-28T10:39:00;3.03;;;2.73;;
9288;SDS011;4683;50.864;12.086;2023-12-28T10:41:41;3.07;;;2.77;;
9288;SDS011;4683;50.864;12.086;2023-12-28T10:44:35;3.10;;;2.80;;
9288;SDS011;4683;50.864;12.086;2023-12-28T10:47:37;3.27;;;2.90;;
9288;SDS011;4683;50.864;12.086;2023-12-28T10:50:12;2.87;;;2.53;;
9288;SDS011;4683;50.864;12.086;2023-12-28T10:52:44;2.50;;;2.30;;
9288;SDS011;4683;50.864;12.086;2023-12-28T10:55:45;4.03;;;2.60;;
9288;SDS011;4683;50.864;12.086;2023-12-28T10:58:46;2.50;;;2.30;;
9288;SDS011;4683;50.864;12.086;2023-12-28T11:01:37;2.67;;;2.47;;
9288;SDS011;4683;50.864;12.086;2023-12-28T11:04:37;2.20;;;2.00;;
9288;SDS011;4683;50.864;12.086;2023-12-28T11:07:30;3.30;;;2.50;;
9288;SDS011;4683;50.864;12.086;2023-12-28T11:10:02;2.20;;;1.97;;
9288;SDS011;4683;50.864;12.086;2023-12-28T11:12:57;2.43;;;2.03;;
9288;SDS011;4683;50.864;12.086;2023-12-28T11:16:08;2.60;;;2.40;;
9288;SDS011;4683;50.864;12.086;2023-12-28T11:19:01;2.17;;;1.93;;
9288;SDS011;4683;50.864;12.086;2023-12-28T11:21:38;3.33;;;2.10;;
9288;SDS011;4683;50.864;12.086;2023-12-28T11:24:40;2.50;;;2.30;;
9288;SDS011;4683;50.864;12.086;2023-12-28T11:27:10;2.30;;;2.10;;
9288;SDS011;4683;50.864;12.086;2023-12-28T11:30:00;2.37;;;2.23;;
9288;SDS011;4683;50.864;12.086;2023-12-28T11:33:10;2.43;;;2.20;;
9288;SDS011;4683;50.864;12.086;2023-12-28T11:36:08;2.97;;;2.77;;
9288;SDS011;4683;50.864;12.086;2023-12-28T11:38:40;2.50;;;2.30;;
9288;SDS011;4683;50.864;12.086;2023-12-28T11:41:21;2.20;;;2.10;;
9288;SDS011;4683;50.864;12.086;2023-12-28T11:44:25;2.50;;;2.30;;
9288;SDS011;4683;50.864;12.086;2023-12-28T11:47:21;2.13;;;2.00;;
9288;SDS011;4683;50.864;12.086;2023-12-28T11:50:32;2.93;;;2.40;;
9288;SDS011;4683;50.864;12.086;2023-12-28T12:06:00;2.63;;;2.10;;
9288;SDS011;4683;50.864;12.086;2023-12-28T12:08:29;2.03;;;1.70;;
9288;SDS011;4683;50.864;12.086;2023-12-28T12:11:41;1.63;;;1.53;;
9288;SDS011;4683;50.864;12.086;2023-12-28T12:14:33;2.13;;;1.50;;
9288;SDS011;4683;50.864;12.086;2023-12-28T12:17:31;1.73;;;1.63;;
9288;SDS011;4683;50.864;12.086;2023-12-28T12:20:34;2.10;;;1.87;;
9288;SDS011;4683;50.864;12.086;2023-12-28T12:23:29;1.93;;;1.73;;
9288;SDS011;4683;50.864;12.086;2023-12-28T12:26:13;2.00;;;1.80;;
9288;SDS011;4683;50.864;12.086;2023-12-28T12:29:19;1.60;;;1.50;;
9288;SDS011;4683;50.864;12.086;2023-12-28T12:32:04;1.87;;;1.60;;
9288;SDS011;4683;50.864;12.086;2023-12-28T12:34:51;1.63;;;1.37;;
9288;SDS011;4683;50.864;12.086;2023-12-28T12:37:46;1.37;;;1.30;;
9288;SDS011;4683;50.864;12.086;2023-12-28T12:40:22;1.37;;;1.27;;
9288;SDS011;4683;50.864;12.086;2023-12-28T12:43:14;1.43;;;1.33;;
9288;SDS011;4683;50.864;12.086;2023-12-28T12:46:19;1.73;;;1.63;;
9288;SDS011;4683;50.864;12.086;2023-12-28T12:49:02;1.50;;;1.40;;
9288;SDS011;4683;50.864;12.086;2023-12-28T12:51:55;1.80;;;1.63;;
9288;SDS011;4683;50.864;12.086;2023-12-28T12:54:44;1.60;;;1.50;;
9288;SDS011;4683;50.864;12.086;2023-12-28T12:57:29;2.10;;;1.90;;
9288;SDS011;4683;50.864;12.086;2023-12-28T13:00:02;1.60;;;1.50;;
9288;SDS011;4683;50.864;12.086;2023-12-28T13:02:44;1.90;;;1.33;;
9288;SDS011;4683;50.864;12.086;2023-12-28T13:05:20;1.60;;;1.50;;
9288;SDS011;4683;50.864;12.086;2023-12-28T13:07:53;2.63;;;1.70;;
9288;SDS011;4683;50.864;12.086;2023-12-28T13:10:37;2.07;;;1.77;;
9288;SDS011;4683;50.864;12.086;2023-12-28T13:13:08;2.97;;;1.93;;
9288;SDS011;4683;50.864;12.086;2023-12-28T13:15:38;2.77;;;2.10;;
9288;SDS011;4683;50.864;12.086;2023-12-28T13:18:39;4.00;;;1.60;;
9288;SDS011;4683;50.864;12.086;2023-12-28T13:21:19;2.50;;;1.50;;
9288;SDS011;4683;50.864;12.086;2023-12-28T13:24:25;1.80;;;1.47;;
9288;SDS011;4683;50.864;12.086;2023-12-28T13:29:58;1.40;;;1.30;;
9288;SDS011;4683;50.864;12.086;2023-12-28T13:32:48;1.60;;;1.50;;
9288;SDS011;4683;50.864;12.086;2023-12-28T13:35:20;2.67;;;1.50;;
9288;SDS011;4683;50.864;12.086;2023-12-28T13:38:04;2.00;;;1.60;;
9288;SDS011;4683;50.864;12.086;2023-12-28T13:43:47;2.10;;;1.47;;
9288;SDS011;4683;50.864;12.086;2023-12-28T13:46:40;1.70;;;1.60;;
9288;SDS011;4683;50.864;12.086;2023-12-28T13:49:21;2.37;;;1.77;;
9288;SDS011;4683;50.864;12.086;2023-12-28T13:51:56;1.93;;;1.83;;
9288;SDS011;4683;50.864;12.086;2023-12-28T13:54:57;2.17;;;2.00;;
9288;SDS011;4683;50.864;12.086;2023-12-28T13:57:41;2.40;;;2.20;;
9288;SDS011;4683;50.864;12.086;2023-12-28T14:00:13;1.97;;;1.70;;
9288;SDS011;4683;50.864;12.086;2023-12-28T14:03:10;2.13;;;1.93;;
9288;SDS011;4683;50.864;12.086;2023-12-28T14:05:58;1.67;;;1.57;;
9288;SDS011;4683;50.864;12.086;2023-12-28T14:08:38;2.47;;;1.70;;
9288;SDS011;4683;50.864;12.086;2023-12-28T14:11:10;2.47;;;2.27;;
9288;SDS011;4683;50.864;12.086;2023-12-28T14:13:44;1.80;;;1.70;;
9288;SDS011;4683;50.864;12.086;2023-12-28T14:19:24;1.67;;;1.57;;
9288;SDS011;4683;50.864;12.086;2023-12-28T14:22:10;1.60;;;1.50;;
9288;SDS011;4683;50.864;12.086;2023-12-28T14:24:53;1.40;;;1.30;;
9288;SDS011;4683;50.864;12.086;2023-12-28T14:27:24;2.27;;;1.77;;
9288;SDS011;4683;50.864;12.086;2023-12-28T14:29:57;1.60;;;1.50;;
9288;SDS011;4683;50.864;12.086;2023-12-28T14:32:44;1.97;;;1.73;;
9288;SDS011;4683;50.864;12.086;2023-12-28T14:35:31;3.93;;;1.63;;
9288;SDS011;4683;50.864;12.086;2023-12-28T14:38:12;1.97;;;1.80;;
9288;SDS011;4683;50.864;12.086;2023-12-28T14:41:01;1.63;;;1.53;;
9288;SDS011;4683;50.864;12.086;2023-12-28T14:43:48;1.90;;;1.60;;
9288;SDS011;4683;50.864;12.086;2023-12-28T14:46:35;2.30;;;1.47;;
9288;SDS011;4683;50.864;12.086;2023-12-28T14:49:29;2.07;;;1.70;;
9288;SDS011;4683;50.864;12.086;2023-12-28T14:52:25;1.80;;;1.70;;
9288;SDS011;4683;50.864;12.086;2023-12-28T14:55:25;1.90;;;1.53;;
9288;SDS011;4683;50.864;12.086;2023-12-28T14:58:24;2.13;;;1.87;;
9288;SDS011;4683;50.864;12.086;2023-12-28T15:01:14;1.73;;;1.57;;
9288;SDS011;4683;50.864;12.086;2023-12-28T15:04:10;1.60;;;1.50;;
9288;SDS011;4683;50.864;12.086;2023-12-28T15:06:45;1.70;;;1.60;;
9288;SDS011;4683;50.864;12.086;2023-12-28T15:09:17;1.50;;;1.40;;
9288;SDS011;4683;50.864;12.086;2023-12-28T15:11:55;1.50;;;1.40;;
9288;SDS011;4683;50.864;12.086;2023-12-28T15:14:25;2.00;;;1.87;;
9288;SDS011;4683;50.864;12.086;2023-12-28T15:17:22;1.87;;;1.77;;
9288;SDS011;4683;50.864;12.086;2023-12-28T15:19:52;3.07;;;2.00;;
9288;SDS011;4683;50.864;12.086;2023-12-28T15:22:43;1.77;;;1.67;;
9288;SDS011;4683;50.864;12.086;2023-12-28T15:25:14;2.30;;;2.10;;
9288;SDS011;4683;50.864;12.086;2023-12-28T15:27:47;3.77;;;2.33;;
9288;SDS011;4683;50.864;12.086;2023-12-28T15:30:21;2.57;;;2.20;;
9288;SDS011;4683;50.864;12.086;2023-12-28T15:33:13;2.47;;;2.27;;
9288;SDS011;4683;50.864;12.086;2023-12-28T15:35:41;2.63;;;2.40;;
9288;SDS011;4683;50.864;12.086;2023-12-28T15:38:12;4.17;;;2.63;;
9288;SDS011;4683;50.864;12.086;2023-12-28T15:40:41;5.10;;;3.30;;
9288;SDS011;4683;50.864;12.086;2023-12-28T15:43:28;6.70;;;5.20;;
9288;SDS011;4683;50.864;12.086;2023-12-28T15:45:57;5.73;;;3.47;;
9288;SDS011;4683;50.864;12.086;2023-12-28T15:48:31;4.77;;;3.73;;
9288;SDS011;4683;50.864;12.086;2023-12-28T15:51:20;3.37;;;2.70;;
9288;SDS011;4683;50.864;12.086;2023-12-28T15:54:12;2.33;;;2.13;;
9288;SDS011;4683;50.864;12.086;2023-12-28T15:56:49;4.30;;;2.37;;
9288;SDS011;4683;50.864;12.086;2023-12-28T15:59:25;2.60;;;1.90;;
9288;SDS011;4683;50.864;12.086;2023-12-28T16:02:17;2.67;;;2.47;;
9288;SDS011;4683;50.864;12.086;2023-12-28T16:04:46;2.80;;;2.60;;
9288;SDS011;4683;50.864;12.086;2023-12-28T16:07:17;3.60;;;2.70;;
9288;SDS011;4683;50.864;12.086;2023-12-28T16:10:02;3.70;;;2.80;;
9288;SDS011;4683;50.864;12.086;2023-12-28T16:12:45;2.20;;;2.00;;
9288;SDS011;4683;50.864;12.086;2023-12-28T16:15:30;2.33;;;2.13;;
9288;SDS011;4683;50.864;12.086;2023-12-28T16:18:04;3.57;;;2.50;;
9288;SDS011;4683;50.864;12.086;2023-12-28T16:20:42;3.00;;;2.57;;
9288;SDS011;4683;50.864;12.086;2023-12-28T16:23:12;2.70;;;2.43;;
9288;SDS011;4683;50.864;12.086;2023-12-28T16:25:59;3.30;;;2.50;;
9288;SDS011;4683;50.864;12.086;2023-12-28T16:28:54;1.67;;;1.57;;
9288;SDS011;4683;50.864;12.086;2023-12-28T16:31:42;2.60;;;2.17;;
9288;SDS011;4683;50.864;12.086;2023-12-28T16:34:12;2.70;;;2.13;;
9288;SDS011;4683;50.864;12.086;2023-12-28T16:36:55;2.57;;;2.10;;
9288;SDS011;4683;50.864;12.086;2023-12-28T16:39:28;2.40;;;2.00;;
9288;SDS011;4683;50.864;12.086;2023-12-28T16:42:26;2.67;;;2.47;;
9288;SDS011;4683;50.864;12.086;2023-12-28T16:44:56;2.53;;;2.30;;
9288;SDS011;4683;50.864;12.086;2023-12-28T16:47:50;3.63;;;2.83;;
9288;SDS011;4683;50.864;12.086;2023-12-28T16:50:19;4.30;;;2.20;;
9288;SDS011;4683;50.864;12.086;2023-12-28T16:53:12;3.00;;;2.40;;